createdAt,value
2019-06-26T00:01:09.245Z,47.69
2019-06-26T00:06:11.307Z,47.86
2019-06-26T00:11:13.407Z,47.84
2019-06-26T00:16:15.893Z,47.95
2019-06-26T00:21:17.934Z,48.23
2019-06-26T00:26:19.966Z,48.42
2019-06-26T00:31:22.034Z,48.49
2019-06-26T00:36:24.118Z,48.67
2019-06-26T00:41:26.225Z,48.43
2019-06-26T00:46:28.292Z,48.63
2019-06-26T00:51:30.358Z,48.73
2019-06-26T00:56:32.353Z,48.69
2019-06-26T01:01:34.511Z,48.56
2019-06-26T01:06:42.289Z,48.54
2019-06-26T01:11:45.181Z,48.57
2019-06-26T01:16:47.302Z,48.64
2019-06-26T01:21:49.437Z,48.95
2019-06-26T01:26:51.505Z,49.01
2019-06-26T01:31:53.550Z,49.06
2019-06-26T01:36:55.626Z,49.26
2019-06-26T01:41:57.755Z,49.19
2019-06-26T01:46:59.837Z,49.13
2019-06-26T01:52:01.918Z,49.36
2019-06-26T01:57:03.970Z,49.04
2019-06-26T02:02:06.176Z,49.19
2019-06-26T02:07:08.274Z,48.95
2019-06-26T02:12:10.375Z,48.96
2019-06-26T02:17:12.539Z,49.16
2019-06-26T02:22:14.600Z,49.19
2019-06-26T02:27:16.708Z,49.13
2019-06-26T02:32:18.883Z,49.12
2019-06-26T02:37:23.332Z,49.50
2019-06-26T02:42:25.419Z,49.52
2019-06-26T02:47:27.458Z,49.55
2019-06-26T02:52:29.592Z,49.88
2019-06-26T02:57:31.681Z,49.83
2019-06-26T03:02:33.743Z,49.89
2019-06-26T03:07:35.839Z,49.97
2019-06-26T03:12:38.129Z,50.11
2019-06-26T03:17:54.336Z,50.20
2019-06-26T03:22:45.568Z,50.32
2019-06-26T03:27:50.075Z,50.35
2019-06-26T03:32:52.424Z,50.26
2019-06-26T03:37:54.462Z,50.42
2019-06-26T03:42:56.511Z,50.19
2019-06-26T03:47:58.630Z,50.00
2019-06-26T03:53:00.863Z,50.03
2019-06-26T03:58:22.674Z,50.01
2019-06-26T04:03:25.076Z,49.98
2019-06-26T04:08:27.194Z,49.85
2019-06-26T04:13:32.079Z,49.63
2019-06-26T04:18:34.204Z,49.96
2019-06-26T04:23:36.226Z,49.77
2019-06-26T04:28:38.439Z,49.76
2019-06-26T04:33:40.500Z,49.73
2019-06-26T04:38:42.615Z,49.69
2019-06-26T04:43:44.658Z,49.65
2019-06-26T04:48:46.710Z,49.56
2019-06-26T04:53:48.898Z,49.52
2019-06-26T04:58:50.990Z,48.87
2019-06-26T05:04:02.919Z,48.42
2019-06-26T05:09:39.498Z,48.02
2019-06-26T05:14:50.623Z,47.28
2019-06-26T05:19:52.896Z,46.51
2019-06-26T05:24:55.035Z,45.38
2019-06-26T05:29:58.843Z,41.18
2019-06-26T05:35:01.009Z,37.26
2019-06-26T05:40:23.638Z,38.31
2019-06-26T05:45:26.894Z,39.20
2019-06-26T05:50:31.999Z,37.96
2019-06-26T05:55:36.951Z,36.47
2019-06-26T06:00:39.072Z,36.67
2019-06-26T06:05:41.335Z,36.23
2019-06-26T06:10:43.656Z,32.64
2019-06-26T06:15:45.728Z,30.56
2019-06-26T06:20:47.814Z,28.97
2019-06-26T06:25:49.923Z,27.51
2019-06-26T06:30:52.015Z,26.61
2019-06-26T06:35:54.064Z,25.68
2019-06-26T06:40:56.114Z,24.90
2019-06-26T06:46:01.284Z,24.20
2019-06-26T06:51:04.102Z,23.42
2019-06-26T06:56:06.233Z,23.00
2019-06-26T07:01:08.575Z,23.12
2019-06-26T07:06:10.647Z,25.94
2019-06-26T07:11:12.688Z,26.97
2019-06-26T07:16:14.787Z,24.77
2019-06-26T07:21:16.952Z,25.46
2019-06-26T07:26:19.071Z,26.95
2019-06-26T07:31:21.222Z,25.04
2019-06-26T07:36:24.561Z,24.53
2019-06-26T07:41:26.890Z,24.74
2019-06-26T07:46:28.912Z,24.93
2019-06-26T07:51:30.981Z,25.54
2019-06-26T07:56:33.035Z,25.88
2019-06-26T08:01:37.660Z,26.55
2019-06-26T08:06:39.905Z,26.91
2019-06-26T08:11:41.974Z,27.34
2019-06-26T08:16:44.146Z,27.67
2019-06-26T08:21:46.893Z,27.61
2019-06-26T08:26:49.110Z,27.79
2019-06-26T08:31:51.160Z,27.93
2019-06-26T08:36:53.309Z,28.11
2019-06-26T08:41:55.494Z,28.30
2019-06-26T08:46:57.649Z,28.43
2019-06-26T08:52:00.035Z,28.23
2019-06-26T08:57:02.095Z,28.71
2019-06-26T09:02:04.165Z,29.27
2019-06-26T09:07:06.312Z,28.92
2019-06-26T09:12:10.270Z,29.32
2019-06-26T09:17:12.451Z,29.25
2019-06-26T09:22:14.544Z,29.45
2019-06-26T09:27:16.589Z,29.31
2019-06-26T09:32:18.649Z,29.44
2019-06-26T09:37:20.771Z,29.50
2019-06-26T09:42:23.252Z,29.80
2019-06-26T09:47:25.292Z,29.57
2019-06-26T09:52:27.372Z,29.59
2019-06-26T09:57:29.463Z,29.81
2019-06-26T10:02:31.527Z,29.00
2019-06-26T10:07:33.580Z,29.20
2019-06-26T10:12:35.750Z,29.53
2019-06-26T10:17:37.894Z,28.75
2019-06-26T10:22:39.960Z,29.50
2019-06-26T10:27:42.534Z,29.21
2019-06-26T10:32:44.591Z,30.15
2019-06-26T10:37:46.849Z,30.11
2019-06-26T10:42:48.881Z,29.36
2019-06-26T10:47:50.951Z,29.53
2019-06-26T10:52:53.041Z,29.23
2019-06-26T10:57:55.105Z,28.15
2019-06-26T11:02:57.249Z,28.40
2019-06-26T11:07:59.395Z,27.64
2019-06-26T11:13:01.454Z,27.47
2019-06-26T11:18:03.544Z,27.52
2019-06-26T11:23:05.685Z,26.84
2019-06-26T11:28:07.809Z,26.97
2019-06-26T11:33:09.955Z,26.74
2019-06-26T11:38:12.018Z,27.34
2019-06-26T11:43:14.035Z,27.85
2019-06-26T11:48:16.108Z,28.33
2019-06-26T11:53:18.140Z,29.17
2019-06-26T11:58:20.356Z,28.97
2019-06-26T12:03:22.431Z,28.58
2019-06-26T12:08:24.505Z,28.75
2019-06-26T12:13:26.620Z,28.81
2019-06-26T12:18:28.840Z,29.00
2019-06-26T12:23:33.287Z,29.22
2019-06-26T12:28:35.361Z,29.31
2019-06-26T12:33:37.420Z,28.20
2019-06-26T12:38:40.799Z,27.54
2019-06-26T12:43:42.801Z,28.15
2019-06-26T12:48:47.921Z,28.86
2019-06-26T12:53:50.133Z,28.53
2019-06-26T12:58:52.351Z,28.85
2019-06-26T13:03:54.529Z,28.75
2019-06-26T13:08:56.718Z,27.87
2019-06-26T13:14:02.972Z,28.91
2019-06-26T13:19:03.149Z,28.06
2019-06-26T13:24:05.247Z,28.22
2019-06-26T13:29:09.731Z,27.78
2019-06-26T13:34:12.032Z,27.75
2019-06-26T13:39:14.100Z,28.11
2019-06-26T13:44:16.175Z,29.24
2019-06-26T13:49:18.287Z,29.56
2019-06-26T13:54:20.444Z,29.70
2019-06-26T13:59:22.520Z,29.94
2019-06-26T14:04:24.609Z,30.23
2019-06-26T14:09:26.680Z,30.47
2019-06-26T14:14:52.560Z,30.66
2019-06-26T14:19:39.584Z,30.74
2019-06-26T14:24:41.893Z,30.96
2019-06-26T14:29:44.134Z,31.20
2019-06-26T14:34:46.225Z,31.24
2019-06-26T14:39:48.340Z,31.32
2019-06-26T14:44:52.734Z,31.37
2019-06-26T14:49:54.459Z,31.47
2019-06-26T14:54:56.639Z,31.35
2019-06-26T14:59:58.807Z,32.43
2019-06-26T15:05:03.639Z,32.49
2019-06-26T15:10:08.792Z,33.02
2019-06-26T15:15:11.282Z,32.76
2019-06-26T15:20:14.994Z,33.43
2019-06-26T15:25:22.877Z,33.45
2019-06-26T15:30:25.014Z,33.90
2019-06-26T15:35:27.074Z,34.15
2019-06-26T15:40:29.161Z,34.21
2019-06-26T15:45:34.706Z,34.59
2019-06-26T15:50:36.915Z,34.78
2019-06-26T15:55:39.229Z,35.26
2019-06-26T16:00:41.286Z,35.27
2019-06-26T16:05:43.473Z,35.41
2019-06-26T16:10:48.610Z,35.62
2019-06-26T16:15:51.395Z,35.73
2019-06-26T16:20:53.482Z,36.15
2019-06-26T16:25:55.696Z,35.86
2019-06-26T16:30:57.812Z,35.88
2019-06-26T16:36:00.045Z,35.88
2019-06-26T16:41:03.546Z,35.91
2019-06-26T16:46:05.822Z,35.96
2019-06-26T16:51:11.236Z,36.00
2019-06-26T16:56:13.362Z,36.08
2019-06-26T17:01:15.377Z,36.14
2019-06-26T17:06:17.582Z,36.37
2019-06-26T17:11:20.105Z,36.30
2019-06-26T17:16:25.180Z,36.07
2019-06-26T17:21:27.252Z,36.17
2019-06-26T17:26:29.379Z,36.75
2019-06-26T17:31:31.436Z,37.06
2019-06-26T17:36:33.577Z,37.34
2019-06-26T17:41:35.725Z,37.41
2019-06-26T17:46:37.782Z,37.28
2019-06-26T17:51:39.955Z,37.38
2019-06-26T17:56:42.023Z,37.56
2019-06-26T18:01:46.276Z,37.98
2019-06-26T18:06:48.375Z,38.18
2019-06-26T18:11:50.616Z,38.09
2019-06-26T18:16:52.705Z,37.58
2019-06-26T18:21:54.876Z,37.23
2019-06-26T18:26:59.161Z,36.48
2019-06-26T18:32:03.071Z,37.01
2019-06-26T18:37:05.203Z,36.40
2019-06-26T18:42:07.291Z,36.29
2019-06-26T18:47:09.383Z,36.25
2019-06-26T18:52:11.448Z,36.36
2019-06-26T18:57:14.749Z,36.81
2019-06-26T19:02:16.842Z,37.01
2019-06-26T19:07:18.899Z,37.34
2019-06-26T19:12:21.053Z,37.55
2019-06-26T19:17:37.465Z,37.91
2019-06-26T19:22:47.347Z,38.48
2019-06-26T19:27:47.947Z,38.82
2019-06-26T19:32:51.259Z,39.26
2019-06-26T19:37:53.440Z,39.83
2019-06-26T19:42:55.630Z,40.37
2019-06-26T19:48:00.879Z,40.57
2019-06-26T19:53:02.964Z,40.89
2019-06-26T19:58:04.978Z,41.20
2019-06-26T20:03:07.034Z,41.31
2019-06-26T20:08:09.215Z,41.24
2019-06-26T20:13:11.283Z,40.99
2019-06-26T20:18:13.339Z,40.88
2019-06-26T20:23:15.416Z,40.73
2019-06-26T20:28:17.463Z,41.03
2019-06-26T20:33:19.534Z,41.55
2019-06-26T20:38:21.711Z,41.26
2019-06-26T20:43:23.928Z,41.27
2019-06-26T20:48:26.122Z,41.17
2019-06-26T20:53:28.436Z,41.39
2019-06-26T20:58:30.504Z,41.57
2019-06-26T21:03:32.562Z,41.69
2019-06-26T21:08:34.603Z,41.67
2019-06-26T21:13:36.694Z,41.82
2019-06-26T21:18:38.743Z,41.96
2019-06-26T21:23:40.968Z,42.05
2019-06-26T21:28:43.015Z,42.23
2019-06-26T21:33:45.126Z,42.30
2019-06-26T21:38:47.174Z,42.49
2019-06-26T21:43:49.267Z,42.56
2019-06-26T21:48:51.363Z,42.85
2019-06-26T21:53:53.404Z,42.85
2019-06-26T21:58:55.463Z,43.32
2019-06-26T22:03:57.743Z,43.94
2019-06-26T22:08:59.796Z,44.31
2019-06-26T22:14:01.884Z,44.31
2019-06-26T22:19:04.073Z,44.59
2019-06-26T22:24:06.168Z,45.02
2019-06-26T22:29:08.278Z,45.12
2019-06-26T22:34:10.466Z,45.24
2019-06-26T22:39:12.600Z,45.36
2019-06-26T22:44:14.687Z,45.61
2019-06-26T22:49:16.758Z,45.78
2019-06-26T22:54:19.872Z,45.95
2019-06-26T22:59:22.362Z,46.08
2019-06-26T23:04:24.417Z,46.28
2019-06-26T23:09:26.507Z,46.37
2019-06-26T23:14:28.734Z,46.45
2019-06-26T23:19:33.172Z,46.54
2019-06-26T23:24:35.345Z,46.59
2019-06-26T23:29:37.430Z,46.43
2019-06-26T23:34:39.691Z,46.68
2019-06-26T23:39:42.053Z,46.43
2019-06-26T23:44:44.183Z,46.81
2019-06-26T23:49:46.241Z,46.67
2019-06-26T23:54:48.324Z,46.60
2019-06-26T23:59:50.413Z,46.83
